sensor_id;sensor_type;location;lat;lon;timestamp;temperature;humidity
81867;DHT22;71318;-36.550;-64.300;2023-09-19T00:05:35;10.00;26.60
81867;DHT22;71318;-36.550;-64.300;2023-09-19T00:08:02;10.00;26.10
81867;DHT22;71318;-36.550;-64.300;2023-09-19T00:10:30;10.10;26.10
81867;DHT22;71318;-36.550;-64.300;2023-09-19T00:13:03;10.20;25.50
81867;DHT22;71318;-36.550;-64.300;2023-09-19T00:15:39;9.90;27.00
81867;DHT22;71318;-36.550;-64.300;2023-09-19T00:18:06;9.80;26.40
81867;DHT22;71318;-36.550;-64.300;2023-09-19T00:20:37;9.70;26.20
81867;DHT22;71318;-36.550;-64.300;2023-09-19T00:23:04;9.70;26.50
81867;DHT22;71318;-36.550;-64.300;2023-09-19T00:25:35;9.80;26.10
81867;DHT22;71318;-36.550;-64.300;2023-09-19T00:28:03;9.70;27.10
81867;DHT22;71318;-36.550;-64.300;2023-09-19T00:30:30;9.50;27.60
81867;DHT22;71318;-36.550;-64.300;2023-09-19T00:32:56;9.40;27.80
81867;DHT22;71318;-36.550;-64.300;2023-09-19T00:35:23;9.40;27.30
81867;DHT22;71318;-36.550;-64.300;2023-09-19T00:37:50;9.40;27.00
81867;DHT22;71318;-36.550;-64.300;2023-09-19T00:40:17;9.50;26.70
81867;DHT22;71318;-36.550;-64.300;2023-09-19T00:42:47;9.60;26.40
81867;DHT22;71318;-36.550;-64.300;2023-09-19T00:45:14;9.40;26.60
81867;DHT22;71318;-36.550;-64.300;2023-09-19T00:47:45;9.40;26.40
81867;DHT22;71318;-36.550;-64.300;2023-09-19T00:50:12;9.30;26.40
81867;DHT22;71318;-36.550;-64.300;2023-09-19T00:52:40;9.30;27.30
81867;DHT22;71318;-36.550;-64.300;2023-09-19T00:55:08;9.00;28.50
81867;DHT22;71318;-36.550;-64.300;2023-09-19T00:57:36;8.70;28.70
81867;DHT22;71318;-36.550;-64.300;2023-09-19T01:00:04;8.60;29.00
81867;DHT22;71318;-36.550;-64.300;2023-09-19T01:02:32;8.60;29.00
81867;DHT22;71318;-36.550;-64.300;2023-09-19T01:04:59;8.90;28.10
81867;DHT22;71318;-36.550;-64.300;2023-09-19T01:07:29;8.90;28.50
81867;DHT22;71318;-36.550;-64.300;2023-09-19T01:09:57;8.80;29.00
81867;DHT22;71318;-36.550;-64.300;2023-09-19T01:17:44;8.40;29.50
81867;DHT22;71318;-36.550;-64.300;2023-09-19T01:20:17;8.00;30.30
81867;DHT22;71318;-36.550;-64.300;2023-09-19T01:22:53;7.90;30.80
81867;DHT22;71318;-36.550;-64.300;2023-09-19T01:28:05;8.20;30.60
81867;DHT22;71318;-36.550;-64.300;2023-09-19T01:30:35;8.30;30.80
81867;DHT22;71318;-36.550;-64.300;2023-09-19T01:33:02;8.20;31.30
81867;DHT22;71318;-36.550;-64.300;2023-09-19T01:35:29;8.00;31.70
81867;DHT22;71318;-36.550;-64.300;2023-09-19T01:37:56;7.90;32.30
81867;DHT22;71318;-36.550;-64.300;2023-09-19T01:40:22;7.80;32.90
81867;DHT22;71318;-36.550;-64.300;2023-09-19T01:42:54;7.70;33.30
81867;DHT22;71318;-36.550;-64.300;2023-09-19T01:56:05;7.80;34.40
81867;DHT22;71318;-36.550;-64.300;2023-09-19T01:58:44;7.90;34.30
81867;DHT22;71318;-36.550;-64.300;2023-09-19T02:01:16;8.00;34.60
81867;DHT22;71318;-36.550;-64.300;2023-09-19T02:03:45;8.10;34.60
81867;DHT22;71318;-36.550;-64.300;2023-09-19T02:06:15;8.30;34.20
81867;DHT22;71318;-36.550;-64.300;2023-09-19T02:08:43;8.20;34.40
81867;DHT22;71318;-36.550;-64.300;2023-09-19T02:11:13;8.10;35.10
81867;DHT22;71318;-36.550;-64.300;2023-09-19T02:13:39;8.40;34.90
81867;DHT22;71318;-36.550;-64.300;2023-09-19T02:16:06;8.30;35.00
81867;DHT22;71318;-36.550;-64.300;2023-09-19T02:18:35;8.30;35.00
81867;DHT22;71318;-36.550;-64.300;2023-09-19T02:21:01;8.30;35.20
81867;DHT22;71318;-36.550;-64.300;2023-09-19T02:23:29;8.20;35.60
81867;DHT22;71318;-36.550;-64.300;2023-09-19T02:25:56;8.30;35.70
81867;DHT22;71318;-36.550;-64.300;2023-09-19T02:28:31;8.20;36.20
81867;DHT22;71318;-36.550;-64.300;2023-09-19T02:30:58;8.20;36.40
81867;DHT22;71318;-36.550;-64.300;2023-09-19T02:33:28;8.20;36.40
81867;DHT22;71318;-36.550;-64.300;2023-09-19T02:35:58;8.10;37.00
81867;DHT22;71318;-36.550;-64.300;2023-09-19T02:38:25;8.10;37.00
81867;DHT22;71318;-36.550;-64.300;2023-09-19T02:40:52;8.10;37.20
81867;DHT22;71318;-36.550;-64.300;2023-09-19T02:43:21;8.10;37.10
81867;DHT22;71318;-36.550;-64.300;2023-09-19T02:45:48;8.30;36.50
81867;DHT22;71318;-36.550;-64.300;2023-09-19T02:48:20;8.30;36.80
81867;DHT22;71318;-36.550;-64.300;2023-09-19T02:50:50;8.20;37.00
81867;DHT22;71318;-36.550;-64.300;2023-09-19T02:53:16;8.40;36.50
81867;DHT22;71318;-36.550;-64.300;2023-09-19T02:55:42;8.40;36.40
81867;DHT22;71318;-36.550;-64.300;2023-09-19T02:58:09;8.40;36.70
81867;DHT22;71318;-36.550;-64.300;2023-09-19T03:00:40;8.50;36.20
81867;DHT22;71318;-36.550;-64.300;2023-09-19T03:03:08;8.50;36.10
81867;DHT22;71318;-36.550;-64.300;2023-09-19T03:05:34;8.50;36.20
81867;DHT22;71318;-36.550;-64.300;2023-09-19T03:08:01;8.40;36.60
81867;DHT22;71318;-36.550;-64.300;2023-09-19T03:10:27;8.50;36.30
81867;DHT22;71318;-36.550;-64.300;2023-09-19T03:12:55;8.60;36.10
81867;DHT22;71318;-36.550;-64.300;2023-09-19T03:15:21;8.50;36.40
81867;DHT22;71318;-36.550;-64.300;2023-09-19T03:17:53;8.50;36.30
81867;DHT22;71318;-36.550;-64.300;2023-09-19T03:20:20;8.50;36.40
81867;DHT22;71318;-36.550;-64.300;2023-09-19T03:22:46;8.70;36.00
81867;DHT22;71318;-36.550;-64.300;2023-09-19T03:25:13;8.60;36.40
81867;DHT22;71318;-36.550;-64.300;2023-09-19T03:27:43;8.30;37.10
81867;DHT22;71318;-36.550;-64.300;2023-09-19T03:30:09;8.30;37.20
81867;DHT22;71318;-36.550;-64.300;2023-09-19T03:32:47;8.10;37.50
81867;DHT22;71318;-36.550;-64.300;2023-09-19T03:35:15;8.30;37.20
81867;DHT22;71318;-36.550;-64.300;2023-09-19T03:37:45;8.50;37.00
81867;DHT22;71318;-36.550;-64.300;2023-09-19T03:40:12;8.50;37.10
81867;DHT22;71318;-36.550;-64.300;2023-09-19T03:42:39;8.30;37.40
81867;DHT22;71318;-36.550;-64.300;2023-09-19T03:45:06;8.50;37.20
81867;DHT22;71318;-36.550;-64.300;2023-09-19T03:47:35;8.60;37.10
81867;DHT22;71318;-36.550;-64.300;2023-09-19T03:50:02;8.60;36.90
81867;DHT22;71318;-36.550;-64.300;2023-09-19T03:52:28;8.60;36.80
81867;DHT22;71318;-36.550;-64.300;2023-09-19T03:54:55;8.60;37.00
81867;DHT22;71318;-36.550;-64.300;2023-09-19T03:57:22;8.50;37.30
81867;DHT22;71318;-36.550;-64.300;2023-09-19T03:59:48;8.30;37.80
81867;DHT22;71318;-36.550;-64.300;2023-09-19T04:02:15;8.20;38.10
81867;DHT22;71318;-36.550;-64.300;2023-09-19T04:04:51;8.30;38.00
81867;DHT22;71318;-36.550;-64.300;2023-09-19T04:07:17;8.10;38.60
81867;DHT22;71318;-36.550;-64.300;2023-09-19T04:09:48;7.90;39.40
81867;DHT22;71318;-36.550;-64.300;2023-09-19T04:12:15;7.80;40.00
81867;DHT22;71318;-36.550;-64.300;2023-09-19T04:14:44;7.60;40.80
81867;DHT22;71318;-36.550;-64.300;2023-09-19T04:17:10;7.40;41.50
81867;DHT22;71318;-36.550;-64.300;2023-09-19T04:19:37;7.30;42.00
81867;DHT22;71318;-36.550;-64.300;2023-09-19T04:22:03;7.30;42.30
81867;DHT22;71318;-36.550;-64.300;2023-09-19T04:24:30;7.20;42.70
81867;DHT22;71318;-36.550;-64.300;2023-09-19T04:26:57;7.10;43.00
81867;DHT22;71318;-36.550;-64.300;2023-09-19T04:29:25;7.10;43.30
81867;DHT22;71318;-36.550;-64.300;2023-09-19T04:31:55;7.10;43.70
81867;DHT22;71318;-36.550;-64.300;2023-09-19T04:34:25;7.10;44.00
81867;DHT22;71318;-36.550;-64.300;2023-09-19T04:36:51;7.20;43.80
81867;DHT22;71318;-36.550;-64.300;2023-09-19T04:39:18;7.20;44.00
81867;DHT22;71318;-36.550;-64.300;2023-09-19T04:41:45;7.10;44.70
81867;DHT22;71318;-36.550;-64.300;2023-09-19T04:44:13;7.10;44.70
81867;DHT22;71318;-36.550;-64.300;2023-09-19T04:46:40;7.00;45.10
81867;DHT22;71318;-36.550;-64.300;2023-09-19T04:49:06;6.70;46.00
81867;DHT22;71318;-36.550;-64.300;2023-09-19T04:51:33;6.60;46.60
81867;DHT22;71318;-36.550;-64.300;2023-09-19T04:54:01;6.40;47.10
81867;DHT22;71318;-36.550;-64.300;2023-09-19T04:56:28;6.30;47.80
81867;DHT22;71318;-36.550;-64.300;2023-09-19T04:58:55;6.20;48.30
81867;DHT22;71318;-36.550;-64.300;2023-09-19T05:01:22;6.10;48.80
81867;DHT22;71318;-36.550;-64.300;2023-09-19T05:03:48;6.00;49.40
81867;DHT22;71318;-36.550;-64.300;2023-09-19T05:06:18;6.00;49.90
81867;DHT22;71318;-36.550;-64.300;2023-09-19T05:08:47;6.10;49.90
81867;DHT22;71318;-36.550;-64.300;2023-09-19T05:11:19;6.30;49.80
81867;DHT22;71318;-36.550;-64.300;2023-09-19T05:13:47;6.60;49.30
81867;DHT22;71318;-36.550;-64.300;2023-09-19T05:16:18;6.60;49.30
81867;DHT22;71318;-36.550;-64.300;2023-09-19T05:18:45;6.70;49.20
81867;DHT22;71318;-36.550;-64.300;2023-09-19T05:21:11;6.70;49.30
81867;DHT22;71318;-36.550;-64.300;2023-09-19T05:23:38;6.70;49.30
81867;DHT22;71318;-36.550;-64.300;2023-09-19T05:26:05;6.60;49.60
81867;DHT22;71318;-36.550;-64.300;2023-09-19T05:28:31;6.60;49.80
81867;DHT22;71318;-36.550;-64.300;2023-09-19T05:31:02;6.50;50.00
81867;DHT22;71318;-36.550;-64.300;2023-09-19T05:33:29;6.50;50.40
81867;DHT22;71318;-36.550;-64.300;2023-09-19T05:35:57;6.60;50.20
81867;DHT22;71318;-36.550;-64.300;2023-09-19T05:38:23;6.60;50.30
81867;DHT22;71318;-36.550;-64.300;2023-09-19T05:40:52;6.60;50.30
81867;DHT22;71318;-36.550;-64.300;2023-09-19T05:43:18;6.70;50.10
81867;DHT22;71318;-36.550;-64.300;2023-09-19T05:45:45;6.70;50.20
81867;DHT22;71318;-36.550;-64.300;2023-09-19T05:48:12;6.80;49.90
81867;DHT22;71318;-36.550;-64.300;2023-09-19T05:50:39;6.90;50.00
81867;DHT22;71318;-36.550;-64.300;2023-09-19T05:53:05;6.90;49.70
81867;DHT22;71318;-36.550;-64.300;2023-09-19T05:55:34;6.70;50.10
81867;DHT22;71318;-36.550;-64.300;2023-09-19T05:58:01;6.80;50.10
81867;DHT22;71318;-36.550;-64.300;2023-09-19T06:00:29;6.70;50.40
81867;DHT22;71318;-36.550;-64.300;2023-09-19T06:02:57;6.60;50.80
81867;DHT22;71318;-36.550;-64.300;2023-09-19T06:05:25;6.60;50.80
81867;DHT22;71318;-36.550;-64.300;2023-09-19T06:07:52;6.60;50.90
81867;DHT22;71318;-36.550;-64.300;2023-09-19T06:10:19;6.50;51.10
81867;DHT22;71318;-36.550;-64.300;2023-09-19T06:12:49;6.50;51.20
81867;DHT22;71318;-36.550;-64.300;2023-09-19T06:15:15;6.50;51.50
81867;DHT22;71318;-36.550;-64.300;2023-09-19T06:17:54;6.30;51.90
81867;DHT22;71318;-36.550;-64.300;2023-09-19T06:20:25;6.40;52.00
81867;DHT22;71318;-36.550;-64.300;2023-09-19T06:22:52;6.30;52.10
81867;DHT22;71318;-36.550;-64.300;2023-09-19T06:25:19;6.30;52.10
81867;DHT22;71318;-36.550;-64.300;2023-09-19T06:27:46;6.20;52.30
81867;DHT22;71318;-36.550;-64.300;2023-09-19T06:30:12;6.20;52.70
81867;DHT22;71318;-36.550;-64.300;2023-09-19T06:32:40;6.00;52.90
81867;DHT22;71318;-36.550;-64.300;2023-09-19T06:35:13;6.00;53.30
81867;DHT22;71318;-36.550;-64.300;2023-09-19T06:37:40;5.90;53.50
81867;DHT22;71318;-36.550;-64.300;2023-09-19T06:40:10;5.80;53.70
81867;DHT22;71318;-36.550;-64.300;2023-09-19T06:42:41;5.80;54.10
81867;DHT22;71318;-36.550;-64.300;2023-09-19T06:45:08;5.90;54.20
81867;DHT22;71318;-36.550;-64.300;2023-09-19T06:47:37;5.80;54.20
81867;DHT22;71318;-36.550;-64.300;2023-09-19T06:50:04;5.80;54.30
81867;DHT22;71318;-36.550;-64.300;2023-09-19T06:52:31;5.70;54.80
81867;DHT22;71318;-36.550;-64.300;2023-09-19T06:54:58;5.70;54.70
81867;DHT22;71318;-36.550;-64.300;2023-09-19T06:57:25;5.80;54.70
81867;DHT22;71318;-36.550;-64.300;2023-09-19T06:59:51;5.60;55.00
81867;DHT22;71318;-36.550;-64.300;2023-09-19T07:02:17;5.60;55.30
81867;DHT22;71318;-36.550;-64.300;2023-09-19T07:04:45;5.50;55.60
81867;DHT22;71318;-36.550;-64.300;2023-09-19T07:07:12;5.50;55.80
81867;DHT22;71318;-36.550;-64.300;2023-09-19T07:09:39;5.40;56.10
81867;DHT22;71318;-36.550;-64.300;2023-09-19T07:12:06;5.40;56.20
81867;DHT22;71318;-36.550;-64.300;2023-09-19T07:14:32;5.30;56.50
81867;DHT22;71318;-36.550;-64.300;2023-09-19T07:16:59;5.30;56.80
81867;DHT22;71318;-36.550;-64.300;2023-09-19T07:19:29;5.40;56.60
81867;DHT22;71318;-36.550;-64.300;2023-09-19T07:21:57;5.50;56.50
81867;DHT22;71318;-36.550;-64.300;2023-09-19T07:24:25;5.40;56.70
81867;DHT22;71318;-36.550;-64.300;2023-09-19T07:26:53;5.20;57.30
81867;DHT22;71318;-36.550;-64.300;2023-09-19T07:29:19;5.40;57.10
81867;DHT22;71318;-36.550;-64.300;2023-09-19T07:31:45;5.50;56.90
81867;DHT22;71318;-36.550;-64.300;2023-09-19T07:34:13;5.50;56.90
81867;DHT22;71318;-36.550;-64.300;2023-09-19T07:36:39;5.50;56.90
81867;DHT22;71318;-36.550;-64.300;2023-09-19T07:39:07;5.50;56.80
81867;DHT22;71318;-36.550;-64.300;2023-09-19T07:41:34;5.60;57.10
81867;DHT22;71318;-36.550;-64.300;2023-09-19T07:44:00;5.60;57.10
81867;DHT22;71318;-36.550;-64.300;2023-09-19T07:46:26;5.70;56.90
81867;DHT22;71318;-36.550;-64.300;2023-09-19T07:48:53;5.60;57.00
81867;DHT22;71318;-36.550;-64.300;2023-09-19T07:51:19;5.70;57.00
81867;DHT22;71318;-36.550;-64.300;2023-09-19T07:53:46;5.70;56.90
81867;DHT22;71318;-36.550;-64.300;2023-09-19T07:56:14;5.70;57.00
81867;DHT22;71318;-36.550;-64.300;2023-09-19T07:58:40;5.80;56.60
81867;DHT22;71318;-36.550;-64.300;2023-09-19T08:01:10;5.80;56.70
81867;DHT22;71318;-36.550;-64.300;2023-09-19T08:03:36;5.70;56.90
81867;DHT22;71318;-36.550;-64.300;2023-09-19T08:06:07;5.70;57.00
81867;DHT22;71318;-36.550;-64.300;2023-09-19T08:08:34;5.80;56.80
81867;DHT22;71318;-36.550;-64.300;2023-09-19T08:11:04;5.60;57.10
81867;DHT22;71318;-36.550;-64.300;2023-09-19T08:13:46;5.60;57.40
81867;DHT22;71318;-36.550;-64.300;2023-09-19T08:16:14;5.70;57.30
81867;DHT22;71318;-36.550;-64.300;2023-09-19T08:18:41;5.70;57.30
81867;DHT22;71318;-36.550;-64.300;2023-09-19T08:21:07;5.90;56.50
81867;DHT22;71318;-36.550;-64.300;2023-09-19T08:23:37;6.00;56.40
81867;DHT22;71318;-36.550;-64.300;2023-09-19T08:26:04;5.90;56.50
81867;DHT22;71318;-36.550;-64.300;2023-09-19T08:28:34;6.00;56.50
81867;DHT22;71318;-36.550;-64.300;2023-09-19T08:31:01;6.00;56.60
81867;DHT22;71318;-36.550;-64.300;2023-09-19T08:33:33;6.00;56.60
81867;DHT22;71318;-36.550;-64.300;2023-09-19T08:36:00;5.90;56.70
81867;DHT22;71318;-36.550;-64.300;2023-09-19T08:38:26;5.90;57.00
81867;DHT22;71318;-36.550;-64.300;2023-09-19T08:40:59;5.90;57.00
81867;DHT22;71318;-36.550;-64.300;2023-09-19T08:43:26;5.90;57.20
81867;DHT22;71318;-36.550;-64.300;2023-09-19T08:46:03;5.90;57.50
81867;DHT22;71318;-36.550;-64.300;2023-09-19T08:48:33;5.90;57.60
81867;DHT22;71318;-36.550;-64.300;2023-09-19T08:51:06;5.90;57.80
81867;DHT22;71318;-36.550;-64.300;2023-09-19T08:53:44;5.90;58.00
81867;DHT22;71318;-36.550;-64.300;2023-09-19T08:56:14;5.90;58.20
81867;DHT22;71318;-36.550;-64.300;2023-09-19T09:01:15;5.90;58.20
81867;DHT22;71318;-36.550;-64.300;2023-09-19T09:03:42;6.00;58.00
81867;DHT22;71318;-36.550;-64.300;2023-09-19T09:06:13;6.10;58.00
81867;DHT22;71318;-36.550;-64.300;2023-09-19T09:08:41;6.10;58.10
81867;DHT22;71318;-36.550;-64.300;2023-09-19T09:11:08;6.10;58.00
81867;DHT22;71318;-36.550;-64.300;2023-09-19T09:13:35;6.10;58.30
81867;DHT22;71318;-36.550;-64.300;2023-09-19T09:16:03;6.10;58.30
81867;DHT22;71318;-36.550;-64.300;2023-09-19T09:18:29;6.10;58.40
81867;DHT22;71318;-36.550;-64.300;2023-09-19T09:20:55;6.10;58.60
81867;DHT22;71318;-36.550;-64.300;2023-09-19T09:23:22;6.10;58.80
81867;DHT22;71318;-36.550;-64.300;2023-09-19T09:28:25;6.00;59.40
81867;DHT22;71318;-36.550;-64.300;2023-09-19T09:30:54;5.90;59.90
81867;DHT22;71318;-36.550;-64.300;2023-09-19T09:33:21;6.00;60.00
81867;DHT22;71318;-36.550;-64.300;2023-09-19T09:35:48;6.20;59.50
81867;DHT22;71318;-36.550;-64.300;2023-09-19T09:38:20;6.20;59.60
81867;DHT22;71318;-36.550;-64.300;2023-09-19T09:40:48;6.20;59.40
81867;DHT22;71318;-36.550;-64.300;2023-09-19T09:43:29;6.20;59.70
81867;DHT22;71318;-36.550;-64.300;2023-09-19T09:46:11;6.20;59.80
81867;DHT22;71318;-36.550;-64.300;2023-09-19T09:48:57;6.10;60.10
81867;DHT22;71318;-36.550;-64.300;2023-09-19T09:51:45;6.10;60.30
81867;DHT22;71318;-36.550;-64.300;2023-09-19T09:54:15;6.10;60.60
81867;DHT22;71318;-36.550;-64.300;2023-09-19T09:59:47;5.90;61.60
81867;DHT22;71318;-36.550;-64.300;2023-09-19T10:02:16;5.70;62.20
81867;DHT22;71318;-36.550;-64.300;2023-09-19T10:04:58;5.70;62.70
81867;DHT22;71318;-36.550;-64.300;2023-09-19T10:07:39;5.50;63.30
81867;DHT22;71318;-36.550;-64.300;2023-09-19T10:10:07;5.40;64.10
81867;DHT22;71318;-36.550;-64.300;2023-09-19T10:12:43;5.30;64.60
81867;DHT22;71318;-36.550;-64.300;2023-09-19T10:15:11;5.30;64.90
81867;DHT22;71318;-36.550;-64.300;2023-09-19T10:17:42;5.40;64.90
81867;DHT22;71318;-36.550;-64.300;2023-09-19T10:20:15;5.50;64.80
81867;DHT22;71318;-36.550;-64.300;2023-09-19T10:22:48;5.60;64.70
81867;DHT22;71318;-36.550;-64.300;2023-09-19T10:25:26;5.50;64.90
81867;DHT22;71318;-36.550;-64.300;2023-09-19T10:28:00;5.50;65.30
81867;DHT22;71318;-36.550;-64.300;2023-09-19T10:30:47;5.50;65.10
81867;DHT22;71318;-36.550;-64.300;2023-09-19T10:33:16;5.60;65.50
81867;DHT22;71318;-36.550;-64.300;2023-09-19T10:35:44;5.70;65.40
81867;DHT22;71318;-36.550;-64.300;2023-09-19T10:38:12;5.90;64.70
81867;DHT22;71318;-36.550;-64.300;2023-09-19T10:40:42;6.00;64.00
81867;DHT22;71318;-36.550;-64.300;2023-09-19T10:43:13;6.10;64.20
81867;DHT22;71318;-36.550;-64.300;2023-09-19T10:45:45;6.10;64.20
81867;DHT22;71318;-36.550;-64.300;2023-09-19T10:48:18;6.10;64.40
81867;DHT22;71318;-36.550;-64.300;2023-09-19T10:53:25;6.20;64.90
81867;DHT22;71318;-36.550;-64.300;2023-09-19T10:55:58;6.20;65.60
81867;DHT22;71318;-36.550;-64.300;2023-09-19T10:58:26;6.30;65.50
81867;DHT22;71318;-36.550;-64.300;2023-09-19T11:00:55;6.30;65.60
81867;DHT22;71318;-36.550;-64.300;2023-09-19T11:03:22;6.20;65.40
81867;DHT22;71318;-36.550;-64.300;2023-09-19T11:06:03;6.30;65.20
81867;DHT22;71318;-36.550;-64.300;2023-09-19T11:22:19;6.60;64.80
81867;DHT22;71318;-36.550;-64.300;2023-09-19T11:24:48;6.70;64.50
81867;DHT22;71318;-36.550;-64.300;2023-09-19T11:27:17;6.80;64.40
81867;DHT22;71318;-36.550;-64.300;2023-09-19T11:29:44;6.80;64.00
81867;DHT22;71318;-36.550;-64.300;2023-09-19T11:32:10;6.90;64.10
81867;DHT22;71318;-36.550;-64.300;2023-09-19T11:39:39;7.20;63.30
81867;DHT22;71318;-36.550;-64.300;2023-09-19T11:44:53;7.50;62.20
81867;DHT22;71318;-36.550;-64.300;2023-09-19T11:47:21;7.80;60.50
81867;DHT22;71318;-36.550;-64.300;2023-09-19T11:49:50;7.90;60.70
81867;DHT22;71318;-36.550;-64.300;2023-09-19T11:52:21;8.00;59.90
81867;DHT22;71318;-36.550;-64.300;2023-09-19T11:54:56;7.80;60.00
81867;DHT22;71318;-36.550;-64.300;2023-09-19T11:57:22;7.80;59.70
81867;DHT22;71318;-36.550;-64.300;2023-09-19T11:59:51;7.80;59.80
81867;DHT22;71318;-36.550;-64.300;2023-09-19T12:02:27;7.70;59.60
81867;DHT22;71318;-36.550;-64.300;2023-09-19T12:05:00;7.70;59.10
81867;DHT22;71318;-36.550;-64.300;2023-09-19T12:07:26;7.90;58.10
81867;DHT22;71318;-36.550;-64.300;2023-09-19T12:10:02;8.10;57.50
81867;DHT22;71318;-36.550;-64.300;2023-09-19T12:12:34;8.20;57.30
81867;DHT22;71318;-36.550;-64.300;2023-09-19T12:15:00;8.50;56.60
81867;DHT22;71318;-36.550;-64.300;2023-09-19T12:17:39;8.50;55.40
81867;DHT22;71318;-36.550;-64.300;2023-09-19T12:20:08;8.60;54.80
81867;DHT22;71318;-36.550;-64.300;2023-09-19T12:22:42;8.60;53.70
81867;DHT22;71318;-36.550;-64.300;2023-09-19T12:25:09;8.80;53.60
81867;DHT22;71318;-36.550;-64.300;2023-09-19T12:27:43;9.20;52.50
81867;DHT22;71318;-36.550;-64.300;2023-09-19T12:30:13;9.40;52.40
81867;DHT22;71318;-36.550;-64.300;2023-09-19T12:32:44;9.30;51.30
81867;DHT22;71318;-36.550;-64.300;2023-09-19T12:35:35;9.50;50.70
81867;DHT22;71318;-36.550;-64.300;2023-09-19T12:38:01;9.80;49.60
81867;DHT22;71318;-36.550;-64.300;2023-09-19T12:40:29;10.00;50.00
81867;DHT22;71318;-36.550;-64.300;2023-09-19T12:43:00;10.20;48.30
81867;DHT22;71318;-36.550;-64.300;2023-09-19T12:45:30;9.90;49.20
81867;DHT22;71318;-36.550;-64.300;2023-09-19T12:53:41;9.80;50.80
81867;DHT22;71318;-36.550;-64.300;2023-09-19T12:56:13;10.10;50.00
81867;DHT22;71318;-36.550;-64.300;2023-09-19T12:58:53;10.10;50.30
81867;DHT22;71318;-36.550;-64.300;2023-09-19T13:01:20;10.10;50.00
81867;DHT22;71318;-36.550;-64.300;2023-09-19T13:06:48;10.70;49.00
81867;DHT22;71318;-36.550;-64.300;2023-09-19T13:09:15;11.00;48.20
81867;DHT22;71318;-36.550;-64.300;2023-09-19T13:11:42;10.70;47.70
81867;DHT22;71318;-36.550;-64.300;2023-09-19T13:14:23;11.00;48.00
81867;DHT22;71318;-36.550;-64.300;2023-09-19T13:16:56;11.20;47.50
81867;DHT22;71318;-36.550;-64.300;2023-09-19T13:24:58;11.70;46.80
81867;DHT22;71318;-36.550;-64.300;2023-09-19T13:27:27;11.50;46.50
81867;DHT22;71318;-36.550;-64.300;2023-09-19T13:29:54;11.70;45.90
81867;DHT22;71318;-36.550;-64.300;2023-09-19T13:32:26;11.70;45.80
81867;DHT22;71318;-36.550;-64.300;2023-09-19T13:34:52;12.00;45.20
81867;DHT22;71318;-36.550;-64.300;2023-09-19T13:37:18;12.20;45.40
81867;DHT22;71318;-36.550;-64.300;2023-09-19T13:39:45;12.60;43.70
81867;DHT22;71318;-36.550;-64.300;2023-09-19T13:42:13;12.60;43.40
81867;DHT22;71318;-36.550;-64.300;2023-09-19T13:44:40;12.50;43.60
81867;DHT22;71318;-36.550;-64.300;2023-09-19T13:47:09;13.00;41.80
81867;DHT22;71318;-36.550;-64.300;2023-09-19T13:49:38;13.20;41.10
81867;DHT22;71318;-36.550;-64.300;2023-09-19T13:52:05;12.40;42.70
81867;DHT22;71318;-36.550;-64.300;2023-09-19T13:54:33;12.40;43.80
81867;DHT22;71318;-36.550;-64.300;2023-09-19T13:57:00;12.60;42.40
81867;DHT22;71318;-36.550;-64.300;2023-09-19T13:59:26;12.80;41.00
81867;DHT22;71318;-36.550;-64.300;2023-09-19T14:01:54;13.40;40.40
81867;DHT22;71318;-36.550;-64.300;2023-09-19T14:04:21;13.20;40.20
81867;DHT22;71318;-36.550;-64.300;2023-09-19T14:06:47;13.20;40.00
81867;DHT22;71318;-36.550;-64.300;2023-09-19T14:09:14;13.10;40.60
81867;DHT22;71318;-36.550;-64.300;2023-09-19T14:11:45;13.60;40.40
81867;DHT22;71318;-36.550;-64.300;2023-09-19T14:14:15;13.50;39.30
81867;DHT22;71318;-36.550;-64.300;2023-09-19T14:16:41;13.40;40.00
81867;DHT22;71318;-36.550;-64.300;2023-09-19T14:19:08;13.40;39.70
81867;DHT22;71318;-36.550;-64.300;2023-09-19T14:21:34;13.30;39.70
81867;DHT22;71318;-36.550;-64.300;2023-09-19T14:24:02;13.10;40.40
81867;DHT22;71318;-36.550;-64.300;2023-09-19T14:26:28;13.30;39.50
81867;DHT22;71318;-36.550;-64.300;2023-09-19T14:28:57;13.10;40.40
81867;DHT22;71318;-36.550;-64.300;2023-09-19T14:31:27;13.60;39.50
81867;DHT22;71318;-36.550;-64.300;2023-09-19T14:34:13;13.60;39.30
81867;DHT22;71318;-36.550;-64.300;2023-09-19T14:36:40;14.00;38.20
81867;DHT22;71318;-36.550;-64.300;2023-09-19T14:39:07;13.70;38.90
81867;DHT22;71318;-36.550;-64.300;2023-09-19T14:41:34;13.70;40.20
81867;DHT22;71318;-36.550;-64.300;2023-09-19T14:44:02;14.30;38.80
81867;DHT22;71318;-36.550;-64.300;2023-09-19T14:46:29;14.30;38.10
81867;DHT22;71318;-36.550;-64.300;2023-09-19T14:48:56;14.50;37.80
81867;DHT22;71318;-36.550;-64.300;2023-09-19T14:51:25;14.60;38.10
81867;DHT22;71318;-36.550;-64.300;2023-09-19T14:53:52;14.70;37.20
81867;DHT22;71318;-36.550;-64.300;2023-09-19T14:56:19;14.80;37.60
81867;DHT22;71318;-36.550;-64.300;2023-09-19T14:58:45;14.30;37.30
81867;DHT22;71318;-36.550;-64.300;2023-09-19T15:01:13;14.20;37.60
81867;DHT22;71318;-36.550;-64.300;2023-09-19T15:03:40;14.50;38.10
81867;DHT22;71318;-36.550;-64.300;2023-09-19T15:06:07;14.80;36.90
81867;DHT22;71318;-36.550;-64.300;2023-09-19T15:08:36;14.60;37.10
81867;DHT22;71318;-36.550;-64.300;2023-09-19T15:11:19;14.30;36.70
81867;DHT22;71318;-36.550;-64.300;2023-09-19T15:13:51;14.30;37.80
81867;DHT22;71318;-36.550;-64.300;2023-09-19T15:16:17;14.40;36.60
81867;DHT22;71318;-36.550;-64.300;2023-09-19T15:18:45;14.80;36.20
81867;DHT22;71318;-36.550;-64.300;2023-09-19T15:21:13;15.20;36.30
81867;DHT22;71318;-36.550;-64.300;2023-09-19T15:25:47;15.10;35.50
81867;DHT22;71318;-36.550;-64.300;2023-09-19T15:29:10;14.80;34.30
81867;DHT22;71318;-36.550;-64.300;2023-09-19T15:31:37;15.10;34.10
81867;DHT22;71318;-36.550;-64.300;2023-09-19T15:34:04;15.50;32.50
81867;DHT22;71318;-36.550;-64.300;2023-09-19T15:36:31;15.40;31.10
81867;DHT22;71318;-36.550;-64.300;2023-09-19T15:39:03;15.90;30.60
81867;DHT22;71318;-36.550;-64.300;2023-09-19T15:41:32;15.50;29.90
81867;DHT22;71318;-36.550;-64.300;2023-09-19T15:44:00;15.40;30.60
81867;DHT22;71318;-36.550;-64.300;2023-09-19T15:46:27;15.20;29.80
81867;DHT22;71318;-36.550;-64.300;2023-09-19T15:52:01;15.30;30.80
81867;DHT22;71318;-36.550;-64.300;2023-09-19T15:54:27;15.00;30.30
81867;DHT22;71318;-36.550;-64.300;2023-09-19T15:56:54;15.80;28.30
81867;DHT22;71318;-36.550;-64.300;2023-09-19T15:59:24;15.90;26.10
81867;DHT22;71318;-36.550;-64.300;2023-09-19T16:01:51;15.60;27.00
81867;DHT22;71318;-36.550;-64.300;2023-09-19T16:04:17;16.10;25.90
81867;DHT22;71318;-36.550;-64.300;2023-09-19T16:06:44;16.10;25.70
81867;DHT22;71318;-36.550;-64.300;2023-09-19T16:09:11;16.20;25.20
81867;DHT22;71318;-36.550;-64.300;2023-09-19T16:11:37;16.20;24.10
81867;DHT22;71318;-36.550;-64.300;2023-09-19T16:14:04;16.00;24.20
81867;DHT22;71318;-36.550;-64.300;2023-09-19T16:16:32;16.60;23.40
81867;DHT22;71318;-36.550;-64.300;2023-09-19T16:19:00;16.70;23.40
81867;DHT22;71318;-36.550;-64.300;2023-09-19T16:21:29;16.80;24.40
81867;DHT22;71318;-36.550;-64.300;2023-09-19T16:23:57;16.80;23.30